createdAt,value
2022-12-31T00:00:05.643Z,7.47
2022-12-31T00:02:32.308Z,8.60
2022-12-31T00:04:59.289Z,6.17
2022-12-31T00:07:25.527Z,7.73
2022-12-31T00:09:51.965Z,7.67
2022-12-31T00:12:18.154Z,7.40
2022-12-31T00:14:44.613Z,5.97
2022-12-31T00:17:10.836Z,6.30
2022-12-31T00:19:37.506Z,9.67
2022-12-31T00:22:03.635Z,8.20
2022-12-31T00:24:30.339Z,8.10
2022-12-31T00:26:56.672Z,8.37
2022-12-31T00:29:23.330Z,5.33
2022-12-31T00:31:49.852Z,9.43
2022-12-31T00:34:16.418Z,7.70
2022-12-31T00:36:42.786Z,8.43
2022-12-31T00:39:09.770Z,6.83
2022-12-31T00:41:36.825Z,7.40
2022-12-31T00:44:03.477Z,7.70
2022-12-31T00:46:30.968Z,6.67
2022-12-31T00:48:57.527Z,7.03
2022-12-31T00:51:26.617Z,6.83
2022-12-31T00:53:53.805Z,7.00
2022-12-31T00:56:23.326Z,9.20
2022-12-31T00:58:50.360Z,6.60
2022-12-31T01:01:31.820Z,6.50
2022-12-31T01:04:03.128Z,5.97
2022-12-31T01:06:29.761Z,6.70
2022-12-31T01:08:56.286Z,6.63
2022-12-31T01:11:23.451Z,6.40
2022-12-31T01:13:53.544Z,7.90
2022-12-31T01:16:23.071Z,7.83
2022-12-31T01:18:49.950Z,8.27
2022-12-31T01:21:17.128Z,5.53
2022-12-31T01:23:44.134Z,7.30
2022-12-31T01:26:12.840Z,7.27
2022-12-31T01:28:39.408Z,10.70
2022-12-31T01:31:07.787Z,7.33
2022-12-31T01:33:34.657Z,5.90
2022-12-31T01:36:06.342Z,6.33
2022-12-31T01:38:34.025Z,6.57
2022-12-31T01:41:00.554Z,6.87
2022-12-31T01:43:47.967Z,6.83
2022-12-31T01:46:24.228Z,6.87
2022-12-31T01:48:55.202Z,7.47
2022-12-31T01:51:22.972Z,8.17
2022-12-31T01:53:49.884Z,6.80
2022-12-31T01:56:17.533Z,7.93
2022-12-31T01:58:47.525Z,8.30
2022-12-31T02:01:21.005Z,7.13
2022-12-31T02:03:47.636Z,5.50
2022-12-31T02:06:21.005Z,8.13
2022-12-31T02:08:48.131Z,6.77
2022-12-31T02:11:20.371Z,7.73
2022-12-31T02:13:46.912Z,6.27
2022-12-31T02:16:24.617Z,6.33
2022-12-31T02:19:45.606Z,7.33
2022-12-31T02:22:26.440Z,6.47
2022-12-31T02:25:05.013Z,7.30
2022-12-31T02:27:49.627Z,6.83
2022-12-31T02:30:22.484Z,6.83
2022-12-31T02:33:28.131Z,6.67
2022-12-31T02:36:04.756Z,6.50
2022-12-31T02:38:38.206Z,6.73
2022-12-31T02:41:04.629Z,6.67
2022-12-31T02:43:30.900Z,7.27
2022-12-31T02:46:09.466Z,6.97
2022-12-31T02:48:54.564Z,5.77
2022-12-31T02:51:30.127Z,6.10
2022-12-31T02:54:02.020Z,5.47
2022-12-31T02:56:52.676Z,7.90
2022-12-31T02:59:49.607Z,5.53
2022-12-31T03:02:20.499Z,8.40
2022-12-31T03:04:51.156Z,4.73
2022-12-31T03:07:22.031Z,5.17
2022-12-31T03:09:49.196Z,6.53
2022-12-31T03:12:37.378Z,6.40
2022-12-31T03:15:05.970Z,7.43
2022-12-31T03:17:33.797Z,6.07
2022-12-31T03:20:26.688Z,7.90
2022-12-31T03:22:53.237Z,5.47
2022-12-31T03:25:34.782Z,4.90
2022-12-31T03:28:03.856Z,5.23
2022-12-31T03:30:31.388Z,5.90
2022-12-31T03:32:58.300Z,4.40
2022-12-31T03:35:26.897Z,3.70
2022-12-31T03:37:53.887Z,6.23
2022-12-31T03:40:22.881Z,7.60
2022-12-31T03:42:50.354Z,5.57
2022-12-31T03:45:17.361Z,5.80
2022-12-31T03:47:44.216Z,5.03
2022-12-31T03:50:12.988Z,6.50
2022-12-31T03:52:39.516Z,5.87
2022-12-31T03:55:06.782Z,6.57
2022-12-31T03:57:33.720Z,6.70
2022-12-31T03:59:59.916Z,5.87
2022-12-31T04:02:29.017Z,4.50
2022-12-31T04:04:55.748Z,5.50
2022-12-31T04:07:22.632Z,5.27
2022-12-31T04:09:48.821Z,5.50
2022-12-31T04:12:15.389Z,3.83
2022-12-31T04:14:41.578Z,5.50
2022-12-31T04:17:08.121Z,5.67
2022-12-31T04:19:34.304Z,4.80
2022-12-31T04:22:00.844Z,5.03
2022-12-31T04:24:27.157Z,5.40
2022-12-31T04:26:53.816Z,6.10
2022-12-31T04:29:20.312Z,3.77
2022-12-31T04:31:46.854Z,5.40
2022-12-31T04:34:13.177Z,4.70
2022-12-31T04:36:39.668Z,3.53
2022-12-31T04:39:05.818Z,6.43
2022-12-31T04:41:32.460Z,3.73
2022-12-31T04:44:01.622Z,2.77
2022-12-31T04:46:33.054Z,3.20
2022-12-31T04:48:59.582Z,4.63
2022-12-31T04:51:28.156Z,3.13
2022-12-31T04:53:54.639Z,4.47
2022-12-31T04:56:21.348Z,4.07
2022-12-31T04:58:47.656Z,3.43
2022-12-31T05:01:14.775Z,4.90
2022-12-31T05:03:41.693Z,4.20
2022-12-31T05:06:15.143Z,4.27
2022-12-31T05:08:42.362Z,3.33
2022-12-31T05:11:09.781Z,4.20
2022-12-31T05:13:36.434Z,5.30
2022-12-31T05:16:04.228Z,4.50
2022-12-31T05:18:32.082Z,4.03
2022-12-31T05:20:59.801Z,3.67
2022-12-31T05:23:26.608Z,7.90
2022-12-31T05:25:53.446Z,4.97
2022-12-31T05:28:19.793Z,8.77
2022-12-31T05:30:50.326Z,6.63
2022-12-31T05:33:18.079Z,4.17
2022-12-31T05:35:45.290Z,4.27
2022-12-31T05:38:11.544Z,2.63
2022-12-31T05:40:38.103Z,3.90
2022-12-31T05:43:04.309Z,3.90
2022-12-31T05:45:31.452Z,3.40
2022-12-31T05:47:57.931Z,4.67
2022-12-31T05:50:24.553Z,5.60
2022-12-31T05:52:55.635Z,4.73
2022-12-31T05:55:23.281Z,4.80
2022-12-31T05:57:49.512Z,5.60
2022-12-31T06:00:16.308Z,4.33
2022-12-31T06:02:42.647Z,4.13
2022-12-31T06:05:09.606Z,4.37
2022-12-31T06:07:35.751Z,7.40
2022-12-31T06:10:04.813Z,6.10
2022-12-31T06:12:31.082Z,5.67
2022-12-31T06:14:57.583Z,6.03
2022-12-31T06:17:24.011Z,6.53
2022-12-31T06:19:50.604Z,2.97
2022-12-31T06:22:17.070Z,3.40
2022-12-31T06:24:43.563Z,4.40
2022-12-31T06:27:10.073Z,3.77
2022-12-31T06:29:36.664Z,5.40
2022-12-31T06:32:03.189Z,4.57
2022-12-31T06:34:29.641Z,4.63
2022-12-31T06:36:55.825Z,3.13
2022-12-31T06:39:22.354Z,3.80
2022-12-31T06:41:48.619Z,3.47
2022-12-31T06:44:15.210Z,3.63
2022-12-31T06:46:41.378Z,6.30
2022-12-31T06:49:07.911Z,9.30
2022-12-31T06:51:34.121Z,13.37
2022-12-31T06:54:00.818Z,16.40
2022-12-31T06:56:33.879Z,8.70
2022-12-31T06:59:02.994Z,5.43
2022-12-31T07:01:38.328Z,4.53
2022-12-31T07:04:57.833Z,5.00
2022-12-31T07:07:41.942Z,8.53
2022-12-31T07:10:17.216Z,6.40
2022-12-31T07:12:46.368Z,6.90
2022-12-31T07:15:32.238Z,4.83
2022-12-31T07:18:06.232Z,3.90
2022-12-31T07:20:33.264Z,4.00
2022-12-31T07:22:59.680Z,4.83
2022-12-31T07:25:26.627Z,4.07
2022-12-31T07:28:26.938Z,46.70
2022-12-31T07:31:02.554Z,61.87
2022-12-31T07:34:01.321Z,14.07
2022-12-31T07:36:46.446Z,12.57
2022-12-31T07:39:19.718Z,5.57
2022-12-31T07:42:02.654Z,7.83
2022-12-31T07:44:35.015Z,13.87
2022-12-31T07:47:04.800Z,44.20
2022-12-31T07:49:33.098Z,16.27
2022-12-31T07:51:59.852Z,7.13
2022-12-31T07:54:26.149Z,8.10
2022-12-31T07:56:53.044Z,5.17
2022-12-31T07:59:42.882Z,4.77
2022-12-31T08:02:25.867Z,4.20
2022-12-31T08:04:59.686Z,4.20
2022-12-31T08:07:41.170Z,4.00
2022-12-31T08:10:34.814Z,5.43
2022-12-31T08:13:04.924Z,5.43
2022-12-31T08:15:31.459Z,5.40
2022-12-31T08:17:58.427Z,5.57
2022-12-31T08:20:25.340Z,4.50
2022-12-31T08:23:07.874Z,3.93
2022-12-31T08:25:36.942Z,3.60
2022-12-31T08:28:19.308Z,3.97
2022-12-31T08:31:01.281Z,4.30
2022-12-31T08:33:33.678Z,17.67
2022-12-31T08:36:12.686Z,10.60
2022-12-31T08:39:02.356Z,6.87
2022-12-31T08:41:42.926Z,25.00
2022-12-31T08:44:28.380Z,22.07
2022-12-31T08:47:11.874Z,15.27
2022-12-31T08:49:38.570Z,6.97
2022-12-31T08:52:14.467Z,9.00
2022-12-31T08:54:41.260Z,5.03
2022-12-31T08:57:26.990Z,5.57
2022-12-31T09:00:16.135Z,5.93
2022-12-31T09:03:01.631Z,2.53
2022-12-31T09:05:32.453Z,3.17
2022-12-31T09:08:07.665Z,3.60
2022-12-31T09:10:58.421Z,2.90
2022-12-31T09:13:39.663Z,2.73
2022-12-31T09:16:18.419Z,3.40
2022-12-31T09:18:44.912Z,3.57
2022-12-31T09:21:14.200Z,2.73
2022-12-31T09:23:41.238Z,2.60
2022-12-31T09:26:32.976Z,4.67
2022-12-31T09:29:09.872Z,3.27
2022-12-31T09:32:03.089Z,2.80
2022-12-31T09:34:39.919Z,3.63
2022-12-31T09:37:15.279Z,2.30
2022-12-31T09:39:44.802Z,3.87
2022-12-31T09:42:49.392Z,3.93
2022-12-31T09:45:21.716Z,4.53
2022-12-31T09:47:48.346Z,2.57
2022-12-31T09:50:34.879Z,2.70
2022-12-31T09:53:07.550Z,4.70
2022-12-31T09:55:45.306Z,3.87
2022-12-31T09:58:11.899Z,2.73
2022-12-31T10:00:52.812Z,2.83
2022-12-31T10:03:37.683Z,3.37
2022-12-31T10:06:16.690Z,5.23
2022-12-31T10:09:17.604Z,2.93
2022-12-31T10:12:08.406Z,2.87
2022-12-31T10:15:08.563Z,3.77
2022-12-31T10:17:59.566Z,3.43
2022-12-31T10:20:58.374Z,3.57
2022-12-31T10:23:31.993Z,2.93
2022-12-31T10:26:21.598Z,4.00
2022-12-31T10:29:01.142Z,3.57
2022-12-31T10:31:39.482Z,3.80
2022-12-31T10:34:13.951Z,4.40
2022-12-31T10:37:03.180Z,4.50
2022-12-31T10:39:48.203Z,4.23
2022-12-31T10:42:57.385Z,2.40
2022-12-31T10:45:41.794Z,3.30
2022-12-31T10:48:36.291Z,3.47
2022-12-31T10:51:24.917Z,3.73
2022-12-31T10:53:54.538Z,4.50
2022-12-31T10:56:23.661Z,3.17
2022-12-31T10:59:05.569Z,2.70
2022-12-31T11:01:47.573Z,3.00
2022-12-31T11:04:35.743Z,2.67
2022-12-31T11:07:27.625Z,3.67
2022-12-31T11:10:01.877Z,2.63
2022-12-31T11:12:43.491Z,3.07
2022-12-31T11:15:16.323Z,2.40
2022-12-31T11:17:57.575Z,3.00
2022-12-31T11:20:28.101Z,2.80
2022-12-31T11:23:08.288Z,3.30
2022-12-31T11:26:12.587Z,3.83
2022-12-31T11:28:51.949Z,4.07
2022-12-31T11:31:30.874Z,5.13
2022-12-31T11:34:18.954Z,4.63
2022-12-31T11:37:04.100Z,3.70
2022-12-31T11:40:12.129Z,4.67
2022-12-31T11:42:58.149Z,5.27
2022-12-31T11:45:50.695Z,4.17
2022-12-31T11:48:36.789Z,6.63
2022-12-31T11:51:24.920Z,5.17
2022-12-31T11:54:49.644Z,5.60
2022-12-31T11:57:21.703Z,5.47
2022-12-31T11:59:51.797Z,5.10
2022-12-31T12:02:26.965Z,4.60
2022-12-31T12:05:01.699Z,6.00
2022-12-31T12:07:32.948Z,6.03
2022-12-31T12:10:03.812Z,6.17
2022-12-31T12:12:40.831Z,4.83
2022-12-31T12:15:10.726Z,5.33
2022-12-31T12:17:38.540Z,3.17
2022-12-31T12:20:17.612Z,2.63
2022-12-31T12:22:52.900Z,3.80
2022-12-31T12:25:24.590Z,3.70
2022-12-31T12:27:53.515Z,4.00
2022-12-31T12:30:25.972Z,4.13
2022-12-31T12:32:56.100Z,4.87
2022-12-31T12:35:26.233Z,3.63
2022-12-31T12:38:04.828Z,4.20
2022-12-31T12:40:34.420Z,5.57
2022-12-31T12:43:02.481Z,3.23
2022-12-31T12:45:43.614Z,3.10
2022-12-31T12:48:27.851Z,2.83
2022-12-31T12:50:57.629Z,3.07
2022-12-31T12:53:49.885Z,6.17
2022-12-31T12:56:19.452Z,2.40
2022-12-31T12:59:07.291Z,3.53
2022-12-31T13:01:46.977Z,2.37
2022-12-31T13:04:38.225Z,2.93
2022-12-31T13:07:11.268Z,3.27
2022-12-31T13:09:40.472Z,3.53
2022-12-31T13:12:15.202Z,3.53
2022-12-31T13:14:44.590Z,3.13
2022-12-31T13:17:49.796Z,2.83
2022-12-31T13:20:26.382Z,2.50
2022-12-31T13:23:14.570Z,2.10
2022-12-31T13:26:02.565Z,2.00
2022-12-31T13:28:31.912Z,2.87
2022-12-31T13:31:06.799Z,1.93
2022-12-31T13:33:49.971Z,2.30
2022-12-31T13:36:20.031Z,2.23
2022-12-31T13:38:50.661Z,2.60
2022-12-31T13:41:35.358Z,2.70
2022-12-31T13:44:28.213Z,2.80
2022-12-31T13:47:01.951Z,4.13
2022-12-31T13:49:43.894Z,2.27
2022-12-31T13:52:27.385Z,3.47
2022-12-31T13:55:19.827Z,1.73
2022-12-31T13:57:58.460Z,1.83
2022-12-31T14:00:30.734Z,2.03
2022-12-31T14:03:20.175Z,4.07
2022-12-31T14:06:03.149Z,2.43
2022-12-31T14:08:31.980Z,2.60
2022-12-31T14:11:34.551Z,2.80
2022-12-31T14:14:10.044Z,5.23
2022-12-31T14:16:52.758Z,2.10
2022-12-31T14:19:50.423Z,2.53
2022-12-31T14:22:26.590Z,2.20
2022-12-31T14:25:01.372Z,3.00
2022-12-31T14:27:43.847Z,2.60
2022-12-31T14:30:30.314Z,2.83
2022-12-31T14:32:57.015Z,3.00
2022-12-31T14:35:29.246Z,2.27
2022-12-31T14:38:16.653Z,3.63
2022-12-31T14:41:16.819Z,3.53
2022-12-31T14:44:01.942Z,3.40
2022-12-31T14:46:44.656Z,4.47
2022-12-31T14:49:47.851Z,3.30
2022-12-31T14:52:25.872Z,4.13
2022-12-31T14:55:08.460Z,3.03
2022-12-31T14:58:01.642Z,2.97
2022-12-31T15:00:29.170Z,3.07
2022-12-31T15:03:03.133Z,3.23
2022-12-31T15:05:36.071Z,2.87
2022-12-31T15:08:18.785Z,2.67
2022-12-31T15:10:48.313Z,2.70
2022-12-31T15:13:44.415Z,2.50
2022-12-31T15:16:24.932Z,4.50
2022-12-31T15:19:18.995Z,2.93
2022-12-31T15:22:10.584Z,3.93
2022-12-31T15:24:43.701Z,6.60
2022-12-31T15:27:28.373Z,6.50
2022-12-31T15:29:55.052Z,10.53
2022-12-31T15:32:30.738Z,7.30
2022-12-31T15:35:19.888Z,7.93
2022-12-31T15:38:17.328Z,5.47
2022-12-31T15:40:46.702Z,6.17
2022-12-31T15:43:41.242Z,7.63
2022-12-31T15:46:18.291Z,8.63
2022-12-31T15:49:03.769Z,5.53
2022-12-31T15:52:02.935Z,7.20
2022-12-31T15:54:40.360Z,6.83
2022-12-31T15:57:15.449Z,6.63
2022-12-31T15:59:43.293Z,6.77
2022-12-31T16:02:23.508Z,7.40
2022-12-31T16:04:52.120Z,7.30
2022-12-31T16:07:18.534Z,6.00
2022-12-31T16:09:57.440Z,8.37
2022-12-31T16:12:32.664Z,5.83
2022-12-31T16:15:01.713Z,8.37
2022-12-31T16:17:33.842Z,8.03
2022-12-31T16:20:20.569Z,9.43
2022-12-31T16:22:52.377Z,5.70
2022-12-31T16:25:30.811Z,10.37
2022-12-31T16:28:00.401Z,5.27
2022-12-31T16:30:32.920Z,7.10
2022-12-31T16:33:05.947Z,5.63
2022-12-31T16:35:35.717Z,5.27
2022-12-31T16:38:11.135Z,5.57
2022-12-31T16:40:38.583Z,6.23
2022-12-31T16:43:23.469Z,6.37
2022-12-31T16:45:50.602Z,4.07
2022-12-31T16:48:19.172Z,4.97
2022-12-31T16:50:49.012Z,5.43
2022-12-31T16:53:21.777Z,6.33
2022-12-31T16:56:01.739Z,4.83
2022-12-31T16:58:36.080Z,4.00
2022-12-31T17:01:22.739Z,3.50
2022-12-31T17:03:52.924Z,4.70
2022-12-31T17:06:22.498Z,4.70
2022-12-31T17:08:55.024Z,2.47
2022-12-31T17:11:29.832Z,6.50
2022-12-31T17:14:05.656Z,3.43
2022-12-31T17:16:38.623Z,4.20
2022-12-31T17:19:06.037Z,3.03
2022-12-31T17:21:33.930Z,3.23
2022-12-31T17:24:03.829Z,4.70
2022-12-31T17:26:33.280Z,5.90
2022-12-31T17:29:01.849Z,4.67
2022-12-31T17:31:39.676Z,4.40
2022-12-31T17:34:12.284Z,6.03
2022-12-31T17:36:57.599Z,6.27
2022-12-31T17:39:25.508Z,6.37
2022-12-31T17:41:56.509Z,5.97
2022-12-31T17:44:27.452Z,6.90
2022-12-31T17:46:54.688Z,5.93
2022-12-31T17:49:30.574Z,7.47
2022-12-31T17:51:57.891Z,4.37
2022-12-31T17:54:24.258Z,5.87
2022-12-31T17:56:52.835Z,7.07
2022-12-31T17:59:28.924Z,9.13
2022-12-31T18:02:00.397Z,7.23
2022-12-31T18:04:27.028Z,5.27
2022-12-31T18:06:56.378Z,9.07
2022-12-31T18:09:22.934Z,6.43
2022-12-31T18:11:50.021Z,6.33
2022-12-31T18:14:16.586Z,6.10
2022-12-31T18:16:43.835Z,6.10
2022-12-31T18:19:23.690Z,5.43
2022-12-31T18:22:03.641Z,4.13
2022-12-31T18:24:31.029Z,4.80
2022-12-31T18:26:59.789Z,6.27
2022-12-31T18:29:26.489Z,7.13
2022-12-31T18:31:53.368Z,5.33
2022-12-31T18:34:19.656Z,7.00
2022-12-31T18:36:46.486Z,7.43
2022-12-31T18:39:12.878Z,9.23
2022-12-31T18:41:48.226Z,8.30
2022-12-31T18:44:15.571Z,5.63
2022-12-31T18:46:42.404Z,4.80
2022-12-31T18:49:11.135Z,6.10
2022-12-31T18:51:37.805Z,6.33
2022-12-31T18:54:04.250Z,7.20
2022-12-31T18:56:31.382Z,6.93
2022-12-31T18:58:58.938Z,6.37
2022-12-31T19:01:34.441Z,5.90
2022-12-31T19:04:27.516Z,4.63
2022-12-31T19:06:55.303Z,4.90
2022-12-31T19:12:11.683Z,6.60
2022-12-31T19:14:38.016Z,5.73
2022-12-31T19:19:30.438Z,5.93
2022-12-31T19:21:56.903Z,6.27
2022-12-31T19:24:25.853Z,5.73
2022-12-31T19:26:53.592Z,5.67
2022-12-31T19:29:22.593Z,7.53
2022-12-31T19:31:49.372Z,7.10
2022-12-31T19:34:15.876Z,7.57
2022-12-31T19:36:44.233Z,8.47
2022-12-31T19:39:15.682Z,6.80
2022-12-31T19:41:43.026Z,6.00
2022-12-31T19:44:17.116Z,7.73
2022-12-31T19:46:45.028Z,6.03
2022-12-31T19:49:12.694Z,7.63
2022-12-31T19:51:39.828Z,6.10
2022-12-31T19:54:06.932Z,4.87
2022-12-31T19:56:33.541Z,5.70
2022-12-31T19:59:07.352Z,4.87
2022-12-31T20:01:34.039Z,5.30
2022-12-31T20:04:00.402Z,5.87
2022-12-31T20:06:26.867Z,6.13
2022-12-31T20:08:53.419Z,4.73
2022-12-31T20:11:21.661Z,6.60
2022-12-31T20:13:49.493Z,4.57
2022-12-31T20:16:18.422Z,4.73
2022-12-31T20:18:46.420Z,4.27
2022-12-31T20:21:21.933Z,4.63
2022-12-31T20:23:49.371Z,5.17
2022-12-31T20:26:17.294Z,8.37
2022-12-31T20:28:44.153Z,6.87
2022-12-31T20:31:16.361Z,4.97
2022-12-31T20:33:43.270Z,4.73
2022-12-31T20:36:12.400Z,6.53
2022-12-31T20:38:38.555Z,6.00
2022-12-31T20:41:11.697Z,5.33
2022-12-31T20:43:39.148Z,5.73
2022-12-31T20:46:23.702Z,7.07
2022-12-31T20:48:51.962Z,16.37
2022-12-31T20:51:20.308Z,20.87
2022-12-31T20:53:49.281Z,26.80
2022-12-31T20:56:16.410Z,27.80
2022-12-31T20:58:43.171Z,38.43
2022-12-31T21:01:10.862Z,32.20
2022-12-31T21:04:04.977Z,31.53
2022-12-31T21:06:26.590Z,8.10
2022-12-31T21:08:54.489Z,6.77
2022-12-31T21:11:39.731Z,6.27
2022-12-31T21:14:07.663Z,5.90
2022-12-31T21:16:34.775Z,5.80
2022-12-31T21:19:01.964Z,4.47
2022-12-31T21:21:28.632Z,5.60
2022-12-31T21:23:54.965Z,4.97
2022-12-31T21:26:22.149Z,5.20
2022-12-31T21:28:49.544Z,5.83
2022-12-31T21:31:16.607Z,4.60
2022-12-31T21:33:44.675Z,6.23
2022-12-31T21:36:12.019Z,4.20
2022-12-31T21:38:38.955Z,4.93
2022-12-31T21:41:07.537Z,5.17
2022-12-31T21:43:34.314Z,7.60
2022-12-31T21:46:06.634Z,4.33
2022-12-31T21:48:33.384Z,5.63
2022-12-31T21:51:13.942Z,6.30
2022-12-31T21:53:40.371Z,4.77
2022-12-31T21:56:09.043Z,4.07
2022-12-31T21:58:40.380Z,5.13
2022-12-31T22:01:33.254Z,5.30
2022-12-31T22:03:59.646Z,4.73
2022-12-31T22:06:26.317Z,4.77
2022-12-31T22:08:54.739Z,5.07
2022-12-31T22:11:24.525Z,4.23
2022-12-31T22:13:51.299Z,3.90
2022-12-31T22:16:19.465Z,4.23
2022-12-31T22:18:46.370Z,4.60
2022-12-31T22:21:19.252Z,5.17
2022-12-31T22:23:51.481Z,4.93
2022-12-31T22:26:20.811Z,5.43
2022-12-31T22:28:47.755Z,6.90
2022-12-31T22:31:23.718Z,6.53
2022-12-31T22:33:50.617Z,6.30
2022-12-31T22:36:19.777Z,7.47
2022-12-31T22:38:47.299Z,6.13
2022-12-31T22:41:19.242Z,5.70
2022-12-31T22:43:48.708Z,4.23
2022-12-31T22:46:21.454Z,4.93
2022-12-31T22:48:48.562Z,5.70
2022-12-31T22:51:16.700Z,7.10
2022-12-31T22:53:43.528Z,5.73
2022-12-31T22:56:15.185Z,6.30
2022-12-31T22:58:41.703Z,5.60
2022-12-31T23:01:18.416Z,5.10
2022-12-31T23:03:46.376Z,8.40
2022-12-31T23:06:13.071Z,12.97
2022-12-31T23:08:39.430Z,12.93
2022-12-31T23:11:08.837Z,11.90
2022-12-31T23:13:56.973Z,14.57
2022-12-31T23:16:44.105Z,13.87
2022-12-31T23:19:29.989Z,17.77
2022-12-31T23:22:15.428Z,14.00
2022-12-31T23:24:42.123Z,12.17
2022-12-31T23:27:09.796Z,14.73
2022-12-31T23:29:45.581Z,13.13
2022-12-31T23:32:15.324Z,12.13
2022-12-31T23:34:43.788Z,12.10
2022-12-31T23:37:13.757Z,13.57
2022-12-31T23:39:40.340Z,10.83
2022-12-31T23:42:06.999Z,11.50
2022-12-31T23:44:33.337Z,8.87
2022-12-31T23:47:00.001Z,9.47
2022-12-31T23:49:26.373Z,9.27
2022-12-31T23:51:53.084Z,8.60
2022-12-31T23:54:19.503Z,7.17
2022-12-31T23:56:46.108Z,6.63
2022-12-31T23:59:12.709Z,7.60
